• Join FlightAware (Why Join?)
  • Login
  • US Flag 
08:19AM EST


 

Airport Tracker/Info


-or-


 

Live Flight TrackerFlight Track Log ✈ BER7688 ✈ 29-Apr-2013 ✈ LEPA / PMI - LEAS / OVD

Flight Track Log - Related Links

Times and Time Zones

All times are in EDT time to prevent confusion due to time zone crossing. See the BER7688 flight status page for this flight to view local times or setup timezone preferences in your user account.

Time Position Orientation Groundspeed Altitude Reporting Facility
EDT Latitude Longitude Course Direction KTS MPH feet Rate Location/Type
09:27AM 40.2350 1.4117 304° West  Level Estimated
09:28AM 40.2963 1.2898 303° West  Level Estimated
09:29AM 40.3576 1.1676 303° West  Level Estimated
09:30AM 40.4187 1.0452 303° West  Level Estimated
09:31AM 40.4796 0.9226 303° West  Level Estimated
09:32AM 40.5405 0.7997 303° West  Level Estimated
09:33AM 40.6012 0.6766 303° West  Level Estimated
09:34AM 40.6618 0.5533 303° West  Level Estimated
09:35AM 40.7222 0.4298 303° West  Level Estimated
09:36AM 40.7825 0.3061 303° West  Level Estimated
09:37AM 40.8427 0.1821 303° West  Level Estimated
09:38AM 40.9028 0.0579 303° West  Level Estimated
09:39AM 40.9627 -0.0665 303° West  Level Estimated
09:40AM 41.0225 -0.1911 302° West  Level Estimated
09:41AM 41.0821 -0.3160 302° West  Level Estimated
09:42AM 41.1416 -0.4411 302° West  Level Estimated
09:43AM 41.2010 -0.5664 302° West  Level Estimated
09:44AM 41.2603 -0.6920 302° West  Level Estimated
09:45AM 41.3194 -0.8178 302° West  Level Estimated
09:46AM 41.3783 -0.9438 302° West  Level Estimated
09:47AM 41.4372 -1.0700 302° West  Level Estimated
09:48AM 41.4959 -1.1965 302° West  Level Estimated
09:49AM 41.5544 -1.3232 302° West  Level Estimated
09:50AM 41.6129 -1.4501 302° West  Level Estimated
09:51AM 41.6711 -1.5773 302° West  Level Estimated
09:52AM 41.7293 -1.7046 301° West  Level Estimated
09:53AM 41.7873 -1.8322 301° West  Level Estimated
09:54AM 41.8451 -1.9601 301° West  Level Estimated
09:55AM 41.9028 -2.0882 301° West  Level Estimated
09:56AM 41.9604 -2.2165 301° West  Level Estimated
09:57AM 42.0178 -2.3450 301° West  Level Estimated
09:58AM 42.0751 -2.4738 301° West  Level Estimated
09:59AM 42.1323 -2.6028 301° West  Level Estimated
10:00AM 42.1893 -2.7320 301° West  Level Estimated
10:01AM 42.2461 -2.8615 301° West  Level Estimated
10:02AM 42.3028 -2.9912 301° West  Level Estimated
10:03AM 42.3594 -3.1211 301° West  Level Estimated
10:04AM 42.4158 -3.2513 300° West  Level Estimated
10:05AM 42.4720 -3.3817 300° West  Level Estimated
10:06AM 42.5281 -3.5124 300° West  Level Estimated
10:07AM 42.5841 -3.6432 300° West  Level Estimated
10:08AM 42.6399 -3.7743 300° West  Level Estimated
10:09AM 42.6956 -3.9057 300° West  Level Estimated
10:10AM 42.7511 -4.0373 300° West  Level Estimated
10:11AM 42.8065 -4.1691 300° West  Level Estimated
10:12AM 42.8617 -4.3011 300° West  Level Estimated
10:13AM 42.9168 -4.4334 300° West  Level Estimated
10:14AM 42.9717 -4.5659 300° West  Level Estimated
10:15AM 43.0264 -4.6987 299° West  Level Estimated
10:16AM 43.0810 -4.8317 299° West  Level Estimated
10:17AM 43.1355 -4.9649 299° West  Level Estimated
10:18AM 43.1898 -5.0984 299° West  Level Estimated
10:19AM 43.2439 -5.2321 299° West  Level Estimated
10:20AM 43.2979 -5.3660 299° West  Level Estimated
10:21AM 43.3517 -5.5002 299° West  Level Estimated
10:22AM 43.4054 -5.6347 299° West  Level Estimated
10:23AM 43.4589 -5.7693 299° West  Level Estimated
10:24AM 43.5122 -5.9042 299° West  Level Estimated
10:25AM 43.5636 -6.0346 299° West  Level Estimated
10:26AM 43.5636 -6.0346 206° Southwest  Level Estimated
10:27AM 43.5636 -6.0346 206° Southwest  Level Estimated
10:28AM 43.5636 -6.0346 206° Southwest  Level Estimated
10:29AM 43.5636 -6.0346 206° Southwest  Level Estimated
10:30AM 43.5636 -6.0346 206° Southwest  Level Estimated
10:31AM 43.5636 -6.0346 206° Southwest  Level Estimated
10:32AM 43.5636 -6.0346 206° Southwest  Level Estimated
10:33AM 43.5636 -6.0346 206° Southwest  Level Estimated
10:34AM 43.5636 -6.0346 206° Southwest  Level Estimated
10:35AM 43.5636 -6.0346 206° Southwest  Level Estimated
10:36AM 43.5636 -6.0346 206° Southwest  Level Estimated
10:37AM 43.5636 -6.0346 206° Southwest  Level Estimated
10:38AM 43.5636 -6.0346 206° Southwest  Level Estimated
10:39AM 43.5636 -6.0346 206° Southwest  Level Estimated
10:40AM 43.5636 -6.0346 206° Southwest  Level Estimated
10:41AM 43.5636 -6.0346 206° Southwest  Level Estimated